• Join FlightAware (Why Join?)
  • Login
  • US Flag 
06:05AM EDT


 

Airport Tracker/Info


-or-


 

Live Flight TrackerFlight Track Log ✈ NKS298 ✈ 24-Jun-2013 ✈ KLAS - KIAH

Flight Track Log - Related Links

Times and Time Zones

All times are in EDT time to prevent confusion due to time zone crossing. See the NKS298 flight status page for this flight to view local times or setup timezone preferences in your user account.

Time Position Orientation Groundspeed Altitude Reporting Facility
EDT Latitude Longitude Course Direction KTS MPH feet Rate Location/Type
06:32AM 36.0760 -115.1240 270° West 50 58  Level FlightAware
06:32AM 36.0760 -115.1540 270° West 169 194 2,700 3,480 Climbing FlightAware
06:33AM 36.0770 -115.1800 273° West 165 190 3,900 2,220 Climbing FlightAware
06:33AM 36.0770 -115.2080 270° West 181 208 4,800 1,560 Climbing FlightAware
06:34AM 36.0740 -115.2400 263° West 215 247 5,400 1,320 Climbing FlightAware
06:34AM 36.0640 -115.2560 232° Southwest 232 267 5,800 1,500 Climbing FlightAware
06:34AM 36.0510 -115.2640 206° Southwest 249 287 6,100 2,100 Climbing FlightAware
06:35AM 36.0190 -115.2790 201° Southwest 262 302 7,300 2,520 Climbing FlightAware
06:35AM 35.9910 -115.2920 201° Southwest 272 313 8,400 3,000 Climbing FlightAware
06:35AM 35.9720 -115.2990 197° South 270 311 9,300 3,000 Climbing FlightAware
06:36AM 35.9370 -115.2920 171° South 284 327 10,600 2,400 Climbing FlightAware
06:36AM 35.9200 -115.2740 139° Southeast 313 360 11,100 1,500 Climbing FlightAware
06:36AM 35.9120 -115.2540 116° Southeast 337 388 11,300 840 Climbing FlightAware
06:37AM 35.9100 -115.2210 94° East 360 414 11,500 1,500 Climbing FlightAware
06:37AM 35.9130 -115.1320 88° East 385 443 12,800 1,920 Climbing FlightAware
06:38AM 35.9150 -115.0400 88° East 406 467 14,200 2,160 Climbing FlightAware
06:39AM 35.9110 -114.9430 93° East 412 474 15,800 2,160 Climbing FlightAware
06:39AM 35.8880 -114.8470 106° East 424 488 17,200 2,040 Climbing FlightAware
06:40AM 35.8650 -114.7500 106° East 426 490 18,700 1,980 Climbing FlightAware
06:41AM 35.8400 -114.6450 106° East 436 502 20,100 1,380 Climbing FlightAware
06:41AM 35.8170 -114.5470 106° East 458 527 20,700 1,260 Climbing FlightAware
06:42AM 35.7920 -114.4440 107° East 463 533 21,900 1,560 Climbing FlightAware
06:43AM 35.7660 -114.3350 106° East 468 539 22,900 1,440 Climbing FlightAware
06:44AM 35.7380 -114.2220 107° East 475 547 24,000 1,260 Climbing FlightAware
06:44AM 35.7130 -114.1180 106° East 485 558 24,700 1,020 Climbing FlightAware
06:45AM 35.6870 -114.0090 106° East 498 573 25,400 1,200 Climbing FlightAware
06:46AM 35.6570 -113.8880 107° East 501 577 26,400 1,200 Climbing FlightAware
06:46AM 35.6290 -113.7740 107° East 507 583 27,200 1,200 Climbing FlightAware
06:47AM 35.6020 -113.6610 106° East 513 590 28,100 1,200 Climbing FlightAware
06:48AM 35.5710 -113.5360 107° East 516 594 28,900 1,140 Climbing FlightAware
06:48AM 35.5430 -113.4260 107° East 518 596 29,700 1,200 Climbing FlightAware
06:49AM 35.5120 -113.2990 107° East 520 598 30,600 1,380 Climbing FlightAware
06:50AM 35.4840 -113.1900 107° East 513 590 31,700 1,800 Climbing FlightAware
06:51AM 35.4560 -113.0790 107° East 501 577 33,000 1,620 Climbing FlightAware
06:51AM 35.4270 -112.9630 107° East 496 571 34,000 1,200 Climbing FlightAware
06:52AM 35.3970 -112.8440 107° East 497 572 34,800 900 Climbing FlightAware
06:53AM 35.3720 -112.7460 107° East 503 579 35,200 660 Climbing FlightAware
06:53AM 35.3380 -112.6170 108° East 508 585 35,800 600 Climbing FlightAware
06:54AM 35.3080 -112.4990 107° East 517 595 36,100 660 Climbing FlightAware
06:55AM 35.2770 -112.3810 108° East 516 594 36,800 660 Climbing FlightAware
06:55AM 35.2540 -112.2920 108° East 508 585 37,000 120 Climbing FlightAware
06:56AM 35.2190 -112.1570 108° East 507 583 37,000  Level FlightAware
06:57AM 35.1890 -112.0400 107° East 507 583 37,000  Level FlightAware
06:58AM 35.1620 -111.9380 108° East 506 582 37,000  Level FlightAware
06:58AM 35.1290 -111.8130 108° East 503 579 37,000 60 Level FlightAware
06:59AM 35.0990 -111.7030 108° East 498 573 37,100  Climbing FlightAware
07:00AM 35.0700 -111.5940 108° East 493 567 37,000 -120 Descending FlightAware
07:00AM 35.0400 -111.4810 108° East 491 565 37,000 -120 Level FlightAware
07:01AM 35.0110 -111.3730 108° East 489 563 36,900  Descending FlightAware
07:02AM 34.9830 -111.2710 108° East 487 560 37,000 60 Climbing FlightAware
07:02AM 34.9490 -111.1460 108° East 486 559 37,000  Level FlightAware
07:03AM 34.9230 -111.0480 108° East 488 562 37,000  Level FlightAware
07:04AM 34.8910 -110.9320 109° East 490 564 37,000  Level FlightAware
07:05AM 34.8590 -110.8160 109° East 492 566 37,000  Level FlightAware
07:05AM 34.8290 -110.7070 109° East 494 568 37,000  Level FlightAware
07:06AM 34.8000 -110.6010 108° East 495 570 37,000 60 Level FlightAware
07:07AM 34.7690 -110.4920 109° East 493 567 37,100 60 Climbing FlightAware
07:07AM 34.7370 -110.3740 108° East 491 565 37,100 -120 Level FlightAware
07:08AM 34.7070 -110.2670 109° East 489 563 37,000 -120 Descending FlightAware
07:09AM 34.6800 -110.1720 109° East 489 563 37,000  Level FlightAware
07:09AM 34.6450 -110.0490 109° East 487 560 37,000  Level FlightAware
07:10AM 34.6160 -109.9440 109° East 487 560 37,000  Level FlightAware
07:11AM 34.5750 -109.8010 109° East 490 564 37,000  Level FlightAware
07:12AM 34.5460 -109.7020 110° East 491 565 37,000 60 Level FlightAware
07:12AM 34.5120 -109.5820 109° East 486 559 37,100  Climbing FlightAware
07:13AM 34.4830 -109.4800 109° East 481 554 37,000 -120 Descending FlightAware
07:14AM 34.4510 -109.3700 109° East 476 548 37,000  Level FlightAware
07:15AM 34.4180 -109.2580 110° East 474 545 37,000  Level FlightAware
07:15AM 34.3980 -109.1860 109° East 473 544 37,000  Level FlightAware
07:16AM 34.3680 -109.0830 109° East 473 544 37,000  Level FlightAware
07:17AM 34.3470 -109.0070 108° East 473 544 37,000  Level FlightAware
07:17AM 34.3160 -108.9000 109° East 473 544 37,000  Level FlightAware
07:18AM 34.2960 -108.8280 109° East 473 544 37,000  Level FlightAware
07:19AM 34.2650 -108.7210 109° East 473 544 37,000  Level FlightAware
07:19AM 34.2440 -108.6450 108° East 473 544 37,000  Level FlightAware
07:20AM 34.2150 -108.5430 109° East 473 544 37,000  Level FlightAware
07:21AM 34.1940 -108.4700 109° East 473 544 37,000  Level FlightAware
07:22AM 34.1650 -108.3680 109° East 473 544 37,000  Level FlightAware
07:22AM 34.1410 -108.2850 109° East 473 544 37,000  Level FlightAware
07:23AM 34.1180 -108.2050 109° East 473 544 37,000  Level FlightAware
07:24AM 34.0890 -108.1030 109° East 473 544 37,000  Level FlightAware
07:24AM 34.0650 -108.0200 109° East 473 544 37,000 -120 Level FlightAware
07:25AM 33.9639 -107.7403 109° East 483 556 36,900  Descending Albuquerque Center
07:26AM 33.9167 -107.5878 110° East 485 558 37,000  Climbing Albuquerque Center
07:27AM 33.8694 -107.4347 110° East 487 560 37,000  Level Albuquerque Center
07:28AM 33.8225 -107.2831 110° East 485 558 37,000 -60 Level Albuquerque Center
07:29AM 33.7753 -107.1325 111° Southeast 484 557 36,900  Descending Albuquerque Center
07:30AM 33.7278 -106.9789 110° East 486 559 37,000  Climbing Albuquerque Center
07:31AM 33.6803 -106.8264 110° East 486 559 37,000  Level Albuquerque Center
07:32AM 33.6319 -106.6764 111° Southeast 485 558 37,000 -60 Level Albuquerque Center
07:33AM 33.5847 -106.5253 111° Southeast 483 556 36,900  Descending Albuquerque Center
07:34AM 33.5358 -106.3764 111° Southeast 482 555 37,000  Climbing Albuquerque Center
07:35AM 33.4886 -106.2275 111° Southeast 478 550 37,000 -60 Level Albuquerque Center
07:36AM 33.4414 -106.0800 111° Southeast 476 548 36,900 -60 Descending Albuquerque Center
07:37AM 33.3936 -105.9331 111° Southeast 475 547 36,900  Level Albuquerque Center
07:38AM 33.3456 -105.7853 111° Southeast 475 547 37,000  Climbing Albuquerque Center
07:39AM 33.2969 -105.6358 111° Southeast 479 551 37,000  Level Albuquerque Center
07:40AM 33.2372 -105.4597 112° Southeast 491 565 37,000  Level Albuquerque Center
07:41AM 33.1864 -105.3075 112° Southeast 496 571 37,000  Level Albuquerque Center
07:42AM 33.1358 -105.1558 112° Southeast 494 568 37,000  Level Albuquerque Center
07:43AM 33.0847 -105.0028 112° Southeast 498 573 37,000  Level Albuquerque Center
07:44AM 33.0267 -104.8550 115° Southeast 494 568 37,000  Level Albuquerque Center
07:45AM 32.9569 -104.7167 121° Southeast 490 564 37,000  Level Albuquerque Center
07:46AM 32.8850 -104.5814 122° Southeast 487 560 37,000  Level Albuquerque Center
07:47AM 32.8094 -104.4503 124° Southeast 484 557 37,000  Level Albuquerque Center
07:48AM 32.7308 -104.3200 126° Southeast 487 560 37,000  Level Albuquerque Center
07:49AM 32.6544 -104.1892 125° Southeast 485 558 37,000  Level Albuquerque Center
07:50AM 32.6072 -104.0428 111° Southeast 499 574 37,000  Level Albuquerque Center
07:51AM 32.5608 -103.8919 110° East 489 563 37,000  Level Albuquerque Center
07:52AM 32.5128 -103.7372 110° East 498 573 37,000  Level Albuquerque Center
07:53AM 32.4619 -103.5850 112° Southeast 499 574 37,000  Level Albuquerque Center
07:54AM 32.4128 -103.4342 111° Southeast 495 570 37,000  Level Albuquerque Center
07:55AM 32.3803 -103.3389 112° Southeast 500 575 37,000  Level Fort Worth Center
07:56AM 32.3308 -103.1906 111° Southeast 488 562 37,000 -60 Level Fort Worth Center
07:57AM 32.2758 -103.0225 111° Southeast 482 555 36,900  Descending Fort Worth Center
08:02AM 32.1020 -102.0970 111° Southeast 498 573 37,000  Climbing FlightAware
08:03AM 32.0740 -101.9490 103° East 499 574 37,000  Level FlightAware
08:04AM 32.0540 -101.8460 103° East 499 574 37,000  Level FlightAware
08:05AM 32.0330 -101.7420 103° East 499 574 37,000  Level FlightAware
08:05AM 32.0080 -101.6150 103° East 500 575 37,000  Level FlightAware
08:06AM 31.9880 -101.5100 103° East 503 579 37,000  Level FlightAware
08:07AM 31.9670 -101.4040 103° East 505 581 37,000  Level FlightAware
08:07AM 31.9430 -101.2860 103° East 507 583 37,000  Level FlightAware
08:08AM 31.9200 -101.1670 103° East 508 585 37,000  Level FlightAware
08:09AM 31.8980 -101.0590 103° East 509 586 37,000  Level FlightAware
08:10AM 31.8750 -100.9470 104° East 509 586 37,000  Level FlightAware
08:10AM 31.8530 -100.8390 103° East 508 585 37,000  Level FlightAware
08:11AM 31.8240 -100.6990 104° East 509 586 37,000  Level FlightAware
08:12AM 31.8040 -100.6010 103° East 508 585 37,000  Level FlightAware
08:12AM 31.7780 -100.4730 103° East 508 585 37,000  Level FlightAware
08:13AM 31.7540 -100.3590 104° East 507 583 37,000  Level FlightAware
08:14AM 31.7320 -100.2510 103° East 506 582 37,000  Level FlightAware
08:15AM 31.7060 -100.1270 104° East 505 581 37,000  Level FlightAware
08:15AM 31.6850 -100.0270 104° East 504 580 37,000  Level FlightAware
08:16AM 31.6600 -99.9090 104° East 504 580 37,000  Level FlightAware
08:17AM 31.6350 -99.7930 104° East 504 580 37,000  Level FlightAware
08:17AM 31.6140 -99.6940 104° East 504 580 37,000  Level FlightAware
08:18AM 31.5890 -99.5760 104° East 504 580 37,000  Level FlightAware
08:19AM 31.5660 -99.4690 104° East 504 580 37,000  Level FlightAware
08:19AM 31.5420 -99.3600 104° East 504 580 37,000  Level FlightAware
08:20AM 31.5160 -99.2420 104° East 504 580 37,000  Level FlightAware
08:21AM 31.4920 -99.1330 104° East 504 580 37,000  Level FlightAware
08:21AM 31.4769 -99.0622 104° East 505 581 37,000  Level FlightAware ADS-B
08:22AM 31.4520 -98.9470 104° East 505 581 37,000  Level FlightAware
08:23AM 31.4270 -98.8370 105° East 507 583 37,000  Level FlightAware
08:23AM 31.4020 -98.7260 105° East 507 583 37,000  Level FlightAware
08:24AM 31.3853 -98.6483 104° East 506 582 37,000  Level FlightAware ADS-B
08:25AM 31.3504 -98.4922 105° East 506 582 37,000  Level FlightAware ADS-B
08:26AM 31.3292 -98.3979 105° East 505 581 37,000  Level FlightAware ADS-B
08:26AM 31.3274 -98.3899 105° East 504 580 37,000  Level FlightAware ADS-B
08:26AM 31.3072 -98.3007 105° East 502 578 37,000  Level FlightAware ADS-B
08:27AM 31.2761 -98.1637 105° East 500 575 37,000  Level FlightAware ADS-B
08:28AM 31.2542 -98.0674 105° East 499 574 37,000  Level FlightAware ADS-B
08:28AM 31.2260 -97.9431 105° East 497 572 37,000  Level FlightAware ADS-B
08:29AM 31.2070 -97.8607 105° East 496 571 37,000  Level FlightAware ADS-B
08:29AM 31.1944 -97.8060 105° East 495 570 37,000  Level FlightAware ADS-B
08:29AM 31.1883 -97.7794 105° East 494 568 37,000  Level FlightAware ADS-B
08:30AM 31.1699 -97.6999 105° East 495 570 37,000  Level FlightAware ADS-B
08:30AM 31.1694 -97.6976 104° East 494 568 37,000  Level FlightAware ADS-B
08:31AM 31.1493 -97.6114 105° East 493 567 37,000  Level FlightAware ADS-B
08:31AM 31.1473 -97.6029 105° East 493 567 37,000  Level FlightAware ADS-B
08:31AM 31.1304 -97.5308 105° East 492 566 37,000  Level FlightAware ADS-B
08:31AM 31.1206 -97.4887 105° East 492 566 37,000  Level FlightAware ADS-B
08:32AM 31.1120 -97.4520 105° East 492 566 37,000  Level FlightAware ADS-B
08:32AM 31.0906 -97.3603 105° East 492 566 37,000  Level FlightAware ADS-B
08:32AM 31.0840 -97.3326 106° East 492 566 37,000  Level FlightAware ADS-B
08:33AM 31.0716 -97.2798 105° East 491 565 37,000  Level FlightAware ADS-B
08:33AM 31.0516 -97.1953 105° East 490 564 37,000  Level FlightAware ADS-B
08:34AM 31.0329 -97.1158 105° East 488 562 37,000  Level FlightAware ADS-B
08:34AM 31.0156 -97.0416 105° East 477 549 37,000 120 Level FlightAware ADS-B
08:34AM 31.0124 -97.0197 100° East 472 543 37,100  Climbing FlightAware ADS-B
08:35AM 31.0109 -96.9757 92° East 474 545 37,000 -1,260 Descending FlightAware ADS-B
08:35AM 31.0142 -96.8988 87° East 478 550 36,100 -2,040 Descending FlightAware ADS-B
08:36AM 31.0179 -96.8176 87° East 475 547 34,900 -2,460 Descending FlightAware ADS-B
08:36AM 31.0212 -96.7402 87° East 475 547 33,600 -2,700 Descending FlightAware ADS-B
08:37AM 31.0252 -96.6558 87° East 473 544 32,100 -2,640 Descending FlightAware ADS-B
08:37AM 31.0260 -96.6355 87° East 472 543 31,800 -2,880 Descending FlightAware ADS-B
08:37AM 31.0256 -96.6124 91° East 475 547 31,300 -3,240 Descending FlightAware ADS-B
08:37AM 31.0242 -96.5967 96° East 477 549 31,000 -3,720 Descending FlightAware ADS-B
08:37AM 31.0192 -96.5664 101° East 482 555 30,200 -3,660 Descending FlightAware ADS-B
08:38AM 31.0014 -96.4892 105° East 485 558 28,400 -3,300 Descending FlightAware ADS-B
08:38AM 30.9842 -96.4130 105° East 480 552 26,900 -2,640 Descending FlightAware ADS-B
08:39AM 30.9692 -96.3380 103° East 467 537 25,800 -2,340 Descending FlightAware ADS-B
08:39AM 30.9543 -96.2605 103° East 454 522 24,500 -2,400 Descending FlightAware ADS-B
08:40AM 30.9470 -96.2284 105° East 449 517 24,000 -2,640 Descending FlightAware ADS-B
08:40AM 30.9399 -96.2073 111° Southeast 446 513 23,500 -2,700 Descending FlightAware ADS-B
08:40AM 30.9323 -96.1907 118° Southeast 444 511 23,200 -2,460 Descending FlightAware ADS-B
08:40AM 30.9157 -96.1640 126° Southeast 439 505 22,600 -2,580 Descending FlightAware ADS-B
08:40AM 30.8948 -96.1404 136° Southeast 434 499 22,000 -2,580 Descending FlightAware ADS-B
08:41AM 30.8757 -96.1247 145° Southeast 430 495 21,500 -2,520 Descending FlightAware ADS-B
08:41AM 30.8210 -96.0908 152° Southeast 420 483 20,200 -2,520 Descending FlightAware ADS-B
08:42AM 30.7696 -96.0586 152° Southeast 411 473 18,900 -2,520 Descending FlightAware ADS-B
08:42AM 30.7161 -96.0248 151° Southeast 407 468 17,600 -2,520 Descending FlightAware ADS-B
08:43AM 30.6663 -95.9940 152° Southeast 400 460 16,300 -2,460 Descending FlightAware ADS-B
08:43AM 30.6445 -95.9805 152° Southeast 396 456 15,800 -2,340 Descending FlightAware ADS-B
08:43AM 30.6335 -95.9727 149° Southeast 394 453 15,500 -2,400 Descending FlightAware ADS-B
08:43AM 30.6205 -95.9618 144° Southeast 391 450 15,200 -2,520 Descending FlightAware ADS-B
08:43AM 30.5990 -95.9393 138° Southeast 388 447 14,500 -2,400 Descending FlightAware ADS-B
08:44AM 30.5685 -95.9050 136° Southeast 381 438 13,600 -2,280 Descending FlightAware ADS-B
08:44AM 30.5616 -95.8985 141° Southeast 379 436 13,400 -2,400 Descending FlightAware ADS-B
08:44AM 30.5554 -95.8936 146° Southeast 375 432 13,200 -2,400 Descending FlightAware ADS-B
08:44AM 30.5468 -95.8881 151° Southeast 371 427 13,000 -2,220 Descending FlightAware ADS-B
08:44AM 30.5381 -95.8839 157° South 367 422 12,800 -2,340 Descending FlightAware ADS-B
08:44AM 30.5272 -95.8801 163° South 363 418 12,500 -1,680 Descending FlightAware ADS-B
08:45AM 30.4789 -95.8680 168° South 338 389 11,800 -1,080 Descending FlightAware ADS-B
08:45AM 30.4623 -95.8636 167° South 323 372 11,800 300 Level FlightAware ADS-B
08:45AM 30.4532 -95.8595 159° South 317 365 11,900 540 Climbing FlightAware ADS-B
08:45AM 30.4488 -95.8566 150° Southeast 311 358 11,900  Level FlightAware ADS-B
08:45AM 30.4417 -95.8502 142° Southeast 304 350 11,900 -720 Level FlightAware ADS-B
08:46AM 30.4138 -95.8203 137° Southeast 290 334 11,500 -1,380 Descending FlightAware ADS-B
08:46AM 30.3834 -95.7890 138° Southeast 290 334 10,600 -1,560 Descending FlightAware ADS-B
08:47AM 30.3559 -95.7604 138° Southeast 286 329 10,000 -1,500 Descending FlightAware ADS-B
08:47AM 30.3397 -95.7437 138° Southeast 286 329 9,500 -1,740 Descending FlightAware ADS-B
08:47AM 30.3245 -95.7279 138° Southeast 286 329 9,100 -1,380 Descending FlightAware ADS-B
08:48AM 30.3094 -95.7123 138° Southeast 283 326 8,800 -1,440 Descending FlightAware ADS-B
08:48AM 30.2950 -95.6973 138° Southeast 280 322 8,400 -1,560 Descending FlightAware ADS-B
08:48AM 30.2793 -95.6809 138° Southeast 279 321 8,000 -1,500 Descending FlightAware ADS-B
08:48AM 30.2647 -95.6656 138° Southeast 276 318 7,600 -1,380 Descending FlightAware ADS-B
08:49AM 30.2500 -95.6504 138° Southeast 273 314 7,300 -1,200 Descending FlightAware ADS-B
08:49AM 30.2354 -95.6351 138° Southeast 270 311 7,000 -780 Descending FlightAware ADS-B
08:49AM 30.2213 -95.6202 138° Southeast 272 313 6,900 -240 Descending FlightAware ADS-B
08:49AM 30.2065 -95.6047 138° Southeast 273 314 6,900  Level FlightAware ADS-B
08:50AM 30.1921 -95.5897 138° Southeast 272 313 6,900  Level FlightAware ADS-B
08:50AM 30.1780 -95.5752 138° Southeast 271 312 6,900  Level FlightAware ADS-B
08:50AM 30.1631 -95.5599 138° Southeast 271 312 6,900  Level FlightAware ADS-B
08:50AM 30.1474 -95.5436 138° Southeast 270 311 6,900  Level FlightAware ADS-B
08:51AM 30.1345 -95.5301 138° Southeast 272 313 6,900  Level FlightAware ADS-B
08:51AM 30.1203 -95.5152 138° Southeast 271 312 6,900  Level FlightAware ADS-B
08:51AM 30.1149 -95.5086 133° Southeast 273 314 6,900  Level FlightAware ADS-B
08:51AM 30.1119 -95.5038 126° Southeast 274 315 6,900  Level FlightAware ADS-B
08:51AM 30.1096 -95.4990 119° Southeast 276 318 6,900  Level FlightAware ADS-B
08:51AM 30.1079 -95.4944 113° Southeast 278 320 6,900  Level FlightAware ADS-B
08:51AM 30.1065 -95.4889 106° East 280 322 6,900  Level FlightAware ADS-B
08:51AM 30.1057 -95.4840 101° East 283 326 6,900  Level FlightAware ADS-B
08:51AM 30.1054 -95.4767 93° East 284 327 6,900  Level FlightAware ADS-B
08:52AM 30.1059 -95.4499 89° East 287 330 6,900  Level FlightAware ADS-B
08:52AM 30.1062 -95.4255 89° East 273 314 6,900  Level FlightAware ADS-B
08:52AM 30.1062 -95.4043 90° East 256 295 6,900  Level FlightAware ADS-B
08:52AM 30.1063 -95.3840 90° East 245 282 6,900  Level FlightAware ADS-B
08:53AM 30.1063 -95.3626 90° East 242 278 6,900  Level FlightAware ADS-B
08:53AM 30.1062 -95.3480 90° East 241 277 6,900  Level FlightAware ADS-B
08:53AM 30.1061 -95.3210 90° East 240 276 6,900  Level FlightAware ADS-B
08:53AM 30.1060 -95.3052 90° East 240 276 6,900  Level FlightAware ADS-B
08:54AM 30.1060 -95.2838 90° East 240 276 6,900  Level FlightAware ADS-B
08:54AM 30.1060 -95.2595 90° East 240 276 6,900  Level FlightAware ADS-B
08:54AM 30.1059 -95.2373 90° East 239 275 6,900  Level FlightAware ADS-B
08:55AM 30.1058 -95.2174 90° East 239 275 6,900  Level FlightAware ADS-B
08:55AM 30.1058 -95.1997 90° East 240 276 6,900  Level FlightAware ADS-B
08:55AM 30.1059 -95.1792 90° East 242 278 6,900  Level FlightAware ADS-B
08:55AM 30.1058 -95.1595 90° East 243 280 6,900  Level FlightAware ADS-B
08:56AM 30.1058 -95.1396 90° East 243 280 6,900  Level FlightAware ADS-B
08:56AM 30.1058 -95.1192 90° East 243 280 6,900  Level FlightAware ADS-B
08:56AM 30.1052 -95.1131 96° East 241 277 6,900 -720 Level FlightAware ADS-B
08:56AM 30.1042 -95.1082 103° East 238 274 6,800 -900 Descending FlightAware ADS-B
08:56AM 30.1030 -95.1047 112° Southeast 235 270 6,800  Level FlightAware ADS-B
08:56AM 30.1010 -95.1003 118° Southeast 231 266 6,800  Level FlightAware ADS-B
08:56AM 30.0990 -95.0972 127° Southeast 228 262 6,800 -900 Level FlightAware ADS-B
08:56AM 30.0963 -95.0940 134° Southeast 223 257 6,700 -1,500 Descending FlightAware ADS-B
08:56AM 30.0929 -95.0910 143° Southeast 220 253 6,600 -1,740 Descending FlightAware ADS-B
08:56AM 30.0902 -95.0894 153° Southeast 218 251 6,500 -1,740 Descending FlightAware ADS-B
08:56AM 30.0866 -95.0878 159° South 216 249 6,400 -1,500 Descending FlightAware ADS-B
08:57AM 30.0825 -95.0869 169° South 215 247 6,300 -1,740 Descending FlightAware ADS-B
08:57AM 30.0794 -95.0867 177° South 215 247 6,200 -1,800 Descending FlightAware ADS-B
08:57AM 30.0730 -95.0867 180° South 213 245 6,000 -1,680 Descending FlightAware ADS-B
08:57AM 30.0574 -95.0876 183° South 212 244 5,600 -1,740 Descending FlightAware ADS-B
08:57AM 30.0447 -95.0884 183° South 210 242 5,200 -1,920 Descending FlightAware ADS-B
08:57AM 30.0417 -95.0889 188° South 211 243 5,100 -2,040 Descending FlightAware ADS-B
08:57AM 30.0389 -95.0897 194° South 211 243 5,000 -1,740 Descending FlightAware ADS-B
08:57AM 30.0354 -95.0912 200° South 212 244 4,900 -1,500 Descending FlightAware ADS-B
08:57AM 30.0325 -95.0931 210° Southwest 212 244 4,800 -1,740 Descending FlightAware ADS-B
08:57AM 30.0302 -95.0951 217° Southwest 213 245 4,700 -2,040 Descending FlightAware ADS-B
08:57AM 30.0276 -95.0979 223° Southwest 214 246 4,600 -1,020 Descending FlightAware ADS-B
08:58AM 30.0255 -95.1009 231° Southwest 212 244 4,600 -1,500 Level FlightAware ADS-B
08:58AM 30.0230 -95.1051 235° Southwest 207 238 4,400 -1,500 Descending FlightAware ADS-B
08:58AM 30.0156 -95.1186 238° Southwest 193 222 4,100 -1,200 Descending FlightAware ADS-B
08:58AM 30.0108 -95.1272 237° Southwest 182 209 3,900 -1,200 Descending FlightAware ADS-B
08:58AM 30.0043 -95.1401 240° Southwest 184 212 3,600 -1,440 Descending FlightAware ADS-B
08:58AM 30.0021 -95.1450 243° Southwest 185 213 3,400 -1,500 Descending FlightAware ADS-B
08:59AM 29.9985 -95.1544 246° West 184 212 3,200 -1,200 Descending FlightAware ADS-B
08:59AM 29.9972 -95.1592 253° West 185 213 3,100 -1,200 Descending FlightAware ADS-B
08:59AM 29.9961 -95.1641 255° West 186 214 3,000 -600 Descending FlightAware ADS-B
08:59AM 29.9955 -95.1684 261° West 187 215 3,000 -780 Level FlightAware ADS-B
08:59AM 29.9951 -95.1714 261° West 188 216 2,900 -780 Descending FlightAware ADS-B
08:59AM 29.9946 -95.1772 264° West 189 217 2,900 -960 Level FlightAware ADS-B
08:59AM 29.9939 -95.1906 267° West 190 219 2,600 -1,320 Descending FlightAware ADS-B
08:59AM 29.9940 -95.1963 271° West 190 219 2,500 -1,140 Descending FlightAware ADS-B
09:00AM 29.9944 -95.2129 272° West 182 209 2,200 -1,200 Descending FlightAware ADS-B
09:00AM 29.9944 -95.2208 270° West 177 204 2,000 -1,320 Descending FlightAware ADS-B
09:00AM 29.9943 -95.2261 269° West 173 199 1,900 -1,140 Descending FlightAware ADS-B
09:00AM 29.9940 -95.2361 268° West 169 194 1,700 -1,140 Descending FlightAware ADS-B
09:00AM 29.9937 -95.2455 268° West 159 183 1,500 -1,260 Descending FlightAware ADS-B
09:00AM 29.9936 -95.2598 270° West 150 173 1,100 -1,020 Descending FlightAware ADS-B
09:01AM 29.9936 -95.2697 270° West 140 161 1,000 -600 Descending FlightAware ADS-B
09:01AM 29.9934 -95.2766 268° West 137 158 900 -720 Descending FlightAware ADS-B
09:01AM 29.9935 -95.2823 271° West 137 158 800 -1,080 Descending FlightAware ADS-B
09:01AM 29.9936 -95.2935 271° West 134 154 500 -840 Descending FlightAware ADS-B
09:01AM 29.9935 -95.3035 269° West 134 154 400 -600 Descending FlightAware ADS-B
09:02AM 29.9935 -95.3080 270° West 136 157 300 -720 Descending FlightAware ADS-B
09:02AM 29.9935 -95.3167 270° West 135 155 200 -540 Descending FlightAware ADS-B
09:02AM 29.9935 -95.3248 270° West 135 155 -1,020 Descending FlightAware ADS-B